Time;durP1;ratioP1;P1;durP2;ratioP2;P2;SDS_P1;SDS_P2;PMS_P1;PMS_P2;Temp;Humidity;BMP_temperature;BMP_pressure;BME280_temperature;BME280_humidity;BME280_pressure;Samples;Min_cycle;Max_cycle;Signal;HPM_P1;HPM_P2
2023/09/16 00:00:33;;;;;;;;;;;;;;;;;;5006563;28;20557;-67
2023/09/16 00:03:01;;;;;;;;;;;;;;;;;;4954811;28;19933;-66
2023/09/16 00:05:30;;;;;;;;;;;;;;;;;;4972231;28;19922;-68
2023/09/16 00:07:55;;;;;;;;;;;;;;;;;;4991313;28;19949;-68
2023/09/16 00:10:21;;;;;;;;;;;;;;;;;;4993239;28;19927;-66
2023/09/16 00:12:46;;;;;;;;;;;;;;;;;;4957651;28;19921;-68
2023/09/16 00:15:12;;;;;;;;;;;;;;;;;;4976930;28;20007;-68
2023/09/16 00:17:38;;;;;;;;;;;;;;;;;;4986526;28;20539;-67
2023/09/16 00:20:14;;;;;;;;;;;;;;;;;;4973082;28;19944;-66
2023/09/16 00:22:42;;;;;;;;;;;;;;;;;;4992493;28;19984;-66
2023/09/16 00:25:09;;;;;;;;;;;;;;;;;;4971363;28;19972;-65
2023/09/16 00:27:34;;;;;;;;;;;;;;;;;;4990672;28;19968;-66
2023/09/16 00:30:03;;;;;;;;;;;;;;;;;;4975573;28;19924;-66
2023/09/16 00:32:28;;;;;;;;;;;;;;;;;;4974114;28;21912;-67
2023/09/16 00:34:54;;;;;;;;;;;;;;;;;;4991316;28;19913;-66
2023/09/16 00:37:22;;;;;;;;;;;;;;;;;;4975588;28;20146;-67
2023/09/16 00:39:47;;;;;;;;;;;;;;;;;;4958344;28;19926;-66
2023/09/16 00:42:13;;;;;;;;;;;;;;;;;;4992285;28;19977;-67
2023/09/16 00:44:38;;;;;;;;;;;;;;;;;;4972243;28;21358;-66
2023/09/16 00:47:06;;;;;;;;;;;;;;;;;;4956694;28;19965;-66
2023/09/16 00:49:31;;;;;;;;;;;;;;;;;;4976702;28;19917;-66
2023/09/16 00:51:59;;;;;;;;;;;;;;;;;;4972410;28;19936;-67
2023/09/16 00:54:27;;;;;;;;;;;;;;;;;;4975235;28;19971;-67
2023/09/16 00:56:53;;;;;;;;;;;;;;;;;;4974990;28;19921;-66
2023/09/16 00:59:22;;;;;;;;;;;;;;;;;;4991241;28;19932;-66
2023/09/16 01:01:50;;;;;;;;;;;;;;;;;;4973049;28;19921;-66
2023/09/16 01:04:15;;;;;;;;;;;;;;;;;;4973449;28;19922;-66
2023/09/16 01:06:43;;;;;;;;;;;;;;;;;;4989699;28;19921;-66
2023/09/16 01:09:08;;;;;;;;;;;;;;;;;;4975867;28;20016;-66
2023/09/16 01:14:52;;;;;;;;;;;;;;;;;;4992025;28;20020;-66
2023/09/16 01:17:18;;;;;;;;;;;;;;;;;;4989900;28;19922;-66
2023/09/16 01:19:44;;;;;;;;;;;;;;;;;;4974419;28;19948;-68
2023/09/16 01:22:10;;;;;;;;;;;;;;;;;;4973816;28;19948;-67
2023/09/16 01:24:35;;;;;;;;;;;;;;;;;;4971916;28;19957;-67
2023/09/16 01:27:00;;;;;;;;;;;;;;;;;;4989838;28;19922;-67
2023/09/16 01:29:26;;;;;;;;;;;;;;;;;;4974229;28;19917;-67
2023/09/16 01:31:51;;;;;;;;;;;;;;;;;;4991126;28;20044;-67
2023/09/16 01:34:17;;;;;;;;;;;;;;;;;;4973614;28;19991;-67
2023/09/16 01:36:42;;;;;;;;;;;;;;;;;;4991089;28;19971;-68
2023/09/16 01:39:10;;;;;;;;;;;;;;;;;;4972356;28;20039;-67
2023/09/16 01:41:37;;;;;;;;;;;;;;;;;;4991227;28;20631;-67
2023/09/16 01:44:03;;;;;;;;;;;;;;;;;;4990200;28;19929;-67
2023/09/16 01:46:31;;;;;;;;;;;;;;;;;;4982954;28;21144;-67
2023/09/16 01:48:56;;;;;;;;;;;;;;;;;;4960475;28;20013;-68
2023/09/16 01:51:24;;;;;;;;;;;;;;;;;;4977082;28;20020;-66
2023/09/16 01:53:49;;;;;;;;;;;;;;;;;;4994306;28;19921;-67
2023/09/16 01:56:14;;;;;;;;;;;;;;;;;;4975713;28;19945;-66
2023/09/16 01:58:40;;;;;;;;;;;;;;;;;;4976252;28;19921;-68
2023/09/16 02:01:08;;;;;;;;;;;;;;;;;;4991860;28;19922;-67
2023/09/16 02:03:36;;;;;;;;;;;;;;;;;;4994255;28;19922;-67
2023/09/16 02:06:01;;;;;;;;;;;;;;;;;;4975748;28;20078;-68
2023/09/16 02:08:27;;;;;;;;;;;;;;;;;;5008663;28;19990;-67
2023/09/16 02:10:52;;;;;;;;;;;;;;;;;;4992842;28;20004;-67
2023/09/16 02:13:17;;;;;;;;;;;;;;;;;;4992110;28;20254;-67
2023/09/16 02:15:42;;;;;;;;;;;;;;;;;;4975633;28;19926;-67
2023/09/16 02:18:08;;;;;;;;;;;;;;;;;;4976499;28;20023;-67
2023/09/16 02:20:33;;;;;;;;;;;;;;;;;;4994529;28;19928;-67
2023/09/16 02:22:58;;;;;;;;;;;;;;;;;;4973980;28;20317;-68
2023/09/16 02:25:24;;;;;;;;;;;;;;;;;;4977065;28;20289;-67
2023/09/16 02:27:49;;;;;;;;;;;;;;;;;;4976184;28;19928;-67
2023/09/16 02:30:15;;;;;;;;;;;;;;;;;;4973425;28;19922;-68
2023/09/16 02:32:40;;;;;;;;;;;;;;;;;;4975748;28;19918;-68
2023/09/16 02:37:50;;;;;;;;;;;;;;;;;;4994219;28;20043;-68
2023/09/16 02:40:16;;;;;;;;;;;;;;;;;;4958953;28;20393;-68
2023/09/16 02:42:44;;;;;;;;;;;;;;;;;;4975809;28;19972;-68
2023/09/16 02:45:10;;;;;;;;;;;;;;;;;;4993889;28;19925;-68
2023/09/16 02:47:35;;;;;;;;;;;;;;;;;;4991059;28;19917;-67
2023/09/16 02:50:00;;;;;;;;;;;;;;;;;;4975784;28;19929;-68
2023/09/16 02:52:26;;;;;;;;;;;;;;;;;;4977279;28;19973;-68
2023/09/16 02:54:51;;;;;;;;;;;;;;;;;;4993680;28;20335;-67
2023/09/16 02:57:17;;;;;;;;;;;;;;;;;;4986982;28;19927;-68
2023/09/16 02:59:42;;;;;;;;;;;;;;;;;;4973751;28;19973;-67
2023/09/16 03:02:08;;;;;;;;;;;;;;;;;;4974725;28;20401;-68
2023/09/16 03:04:33;;;;;;;;;;;;;;;;;;4975162;28;19917;-67
2023/09/16 03:06:59;;;;;;;;;;;;;;;;;;4958792;28;20016;-67
2023/09/16 03:09:24;;;;;;;;;;;;;;;;;;4992341;28;19928;-67
2023/09/16 03:11:49;;;;;;;;;;;;;;;;;;4993741;28;19929;-68
2023/09/16 03:14:15;;;;;;;;;;;;;;;;;;4975536;28;19921;-68
2023/09/16 03:16:41;;;;;;;;;;;;;;;;;;4975905;28;19975;-67
2023/09/16 03:19:08;;;;;;;;;;;;;;;;;;4992068;28;20242;-67
2023/09/16 03:21:33;;;;;;;;;;;;;;;;;;4973871;28;19946;-67
2023/09/16 03:23:58;;;;;;;;;;;;;;;;;;4973638;28;19944;-67
2023/09/16 03:26:24;;;;;;;;;;;;;;;;;;4990336;28;20528;-67
2023/09/16 03:28:51;;;;;;;;;;;;;;;;;;4990423;28;19916;-68
2023/09/16 03:31:16;;;;;;;;;;;;;;;;;;4993179;28;19917;-67
2023/09/16 03:33:41;;;;;;;;;;;;;;;;;;4959684;28;19975;-67
2023/09/16 03:36:07;;;;;;;;;;;;;;;;;;4990975;28;19925;-67
2023/09/16 03:38:33;;;;;;;;;;;;;;;;;;4973738;28;19925;-67
2023/09/16 03:40:58;;;;;;;;;;;;;;;;;;4975590;28;21112;-67
2023/09/16 03:43:23;;;;;;;;;;;;;;;;;;4975472;28;19922;-67
2023/09/16 03:45:49;;;;;;;;;;;;;;;;;;4991237;28;19960;-67
2023/09/16 03:48:14;;;;;;;;;;;;;;;;;;4973113;28;19926;-68
2023/09/16 03:50:39;;;;;;;;;;;;;;;;;;4973239;28;20012;-68
2023/09/16 03:53:09;;;;;;;;;;;;;;;;;;4974333;28;19917;-67
2023/09/16 03:55:34;;;;;;;;;;;;;;;;;;4991880;28;20141;-67
2023/09/16 03:58:02;;;;;;;;;;;;;;;;;;4974150;28;19924;-68
2023/09/16 04:00:30;;;;;;;;;;;;;;;;;;4973610;28;19988;-67
2023/09/16 04:02:55;;;;;;;;;;;;;;;;;;4989974;28;20488;-68
2023/09/16 04:05:21;;;;;;;;;;;;;;;;;;4987391;28;19917;-68
2023/09/16 04:07:47;;;;;;;;;;;;;;;;;;4991937;28;19921;-67
2023/09/16 04:10:12;;;;;;;;;;;;;;;;;;4993074;28;19945;-68
2023/09/16 04:12:37;;;;;;;;;;;;;;;;;;4973030;28;20004;-68
2023/09/16 04:15:03;;;;;;;;;;;;;;;;;;4974576;28;19945;-67
2023/09/16 04:17:28;;;;;;;;;;;;;;;;;;4971242;28;19956;-68
2023/09/16 04:19:54;;;;;;;;;;;;;;;;;;4990045;28;20798;-68
2023/09/16 04:22:19;;;;;;;;;;;;;;;;;;4955566;28;19995;-68
2023/09/16 04:25:03;;;;;;;;;;;;;;;;;;4971647;28;19967;-67
2023/09/16 04:27:31;;;;;;;;;;;;;;;;;;4992479;28;20012;-68
2023/09/16 04:29:56;;;;;;;;;;;;;;;;;;4991029;28;20007;-68
2023/09/16 04:32:24;;;;;;;;;;;;;;;;;;4989856;28;19917;-68
2023/09/16 04:34:50;;;;;;;;;;;;;;;;;;4992374;28;19925;-67
2023/09/16 04:37:16;;;;;;;;;;;;;;;;;;4957451;28;19917;-68
2023/09/16 04:39:43;;;;;;;;;;;;;;;;;;4990097;28;21939;-69
2023/09/16 04:42:08;;;;;;;;;;;;;;;;;;4972715;28;19996;-69
2023/09/16 04:44:38;;;;;;;;;;;;;;;;;;4986365;28;19917;-68
2023/09/16 04:47:07;;;;;;;;;;;;;;;;;;4973704;28;20384;-69
2023/09/16 04:49:32;;;;;;;;;;;;;;;;;;4990177;28;19933;-68
2023/09/16 04:51:58;;;;;;;;;;;;;;;;;;4974681;28;20269;-68
2023/09/16 04:54:23;;;;;;;;;;;;;;;;;;4990729;28;19931;-69
2023/09/16 04:56:49;;;;;;;;;;;;;;;;;;4991492;28;19918;-69
2023/09/16 04:59:14;;;;;;;;;;;;;;;;;;4990860;28;19967;-69
2023/09/16 05:01:40;;;;;;;;;;;;;;;;;;4959719;28;19925;-68
2023/09/16 05:04:05;;;;;;;;;;;;;;;;;;4972487;28;19921;-68
2023/09/16 05:06:33;;;;;;;;;;;;;;;;;;4974947;28;19923;-69
2023/09/16 05:08:59;;;;;;;;;;;;;;;;;;4990651;28;19925;-68
2023/09/16 05:11:27;;;;;;;;;;;;;;;;;;4992413;28;21487;-69
2023/09/16 05:13:52;;;;;;;;;;;;;;;;;;4974109;28;20361;-69
2023/09/16 05:16:18;;;;;;;;;;;;;;;;;;4990509;28;19968;-69
2023/09/16 05:18:43;;;;;;;;;;;;;;;;;;4992172;28;20004;-69
2023/09/16 05:21:09;;;;;;;;;;;;;;;;;;4992870;28;20024;-68
2023/09/16 05:23:34;;;;;;;;;;;;;;;;;;4976907;28;19928;-69
2023/09/16 05:26:02;;;;;;;;;;;;;;;;;;4978237;28;20067;-69
2023/09/16 05:28:28;;;;;;;;;;;;;;;;;;4977902;28;19963;-68
2023/09/16 05:30:53;;;;;;;;;;;;;;;;;;4996076;28;20991;-69
2023/09/16 05:33:18;;;;;;;;;;;;;;;;;;4962009;28;21877;-69
2023/09/16 05:35:44;;;;;;;;;;;;;;;;;;4996393;28;20029;-69
2023/09/16 05:38:09;;;;;;;;;;;;;;;;;;4961511;28;19969;-69
2023/09/16 05:40:38;;;;;;;;;;;;;;;;;;4976961;28;20304;-69
2023/09/16 05:43:03;;;;;;;;;;;;;;;;;;4995758;28;20012;-69
2023/09/16 05:45:28;;;;;;;;;;;;;;;;;;4977307;28;19921;-69
2023/09/16 05:47:55;;;;;;;;;;;;;;;;;;4995494;28;20348;-69
2023/09/16 05:50:20;;;;;;;;;;;;;;;;;;4978225;28;20051;-69
2023/09/16 05:52:45;;;;;;;;;;;;;;;;;;4963218;28;19921;-69
2023/09/16 05:55:11;;;;;;;;;;;;;;;;;;4995349;28;19925;-69
2023/09/16 05:57:36;;;;;;;;;;;;;;;;;;4974788;28;19921;-69
2023/09/16 06:00:01;;;;;;;;;;;;;;;;;;4988876;28;23109;-69
2023/09/16 06:02:27;;;;;;;;;;;;;;;;;;4976417;28;19964;-70
2023/09/16 06:04:52;;;;;;;;;;;;;;;;;;4991814;28;19921;-69
2023/09/16 06:07:18;;;;;;;;;;;;;;;;;;4996052;28;19921;-68
2023/09/16 06:09:43;;;;;;;;;;;;;;;;;;4974647;28;19925;-69
2023/09/16 06:12:08;;;;;;;;;;;;;;;;;;4995430;28;19924;-68
2023/09/16 06:14:36;;;;;;;;;;;;;;;;;;4974755;28;19925;-69
2023/09/16 06:17:01;;;;;;;;;;;;;;;;;;4976276;28;19917;-68
2023/09/16 06:19:27;;;;;;;;;;;;;;;;;;4974535;28;19921;-69
2023/09/16 06:21:52;;;;;;;;;;;;;;;;;;4956899;28;19927;-68
2023/09/16 06:24:17;;;;;;;;;;;;;;;;;;4959831;28;19929;-69
2023/09/16 06:26:42;;;;;;;;;;;;;;;;;;4977649;28;19952;-69
2023/09/16 06:29:08;;;;;;;;;;;;;;;;;;4993828;28;19947;-69
2023/09/16 06:31:33;;;;;;;;;;;;;;;;;;4976448;28;19975;-68
2023/09/16 06:33:59;;;;;;;;;;;;;;;;;;4976503;28;20036;-69
2023/09/16 06:36:26;;;;;;;;;;;;;;;;;;4971869;28;19924;-69
2023/09/16 06:38:52;;;;;;;;;;;;;;;;;;4994389;28;19921;-69
2023/09/16 06:41:17;;;;;;;;;;;;;;;;;;4958766;28;20425;-69
2023/09/16 06:43:42;;;;;;;;;;;;;;;;;;4972987;28;19922;-70
2023/09/16 06:46:08;;;;;;;;;;;;;;;;;;4975283;28;19932;-69
2023/09/16 06:48:33;;;;;;;;;;;;;;;;;;4973986;28;19921;-69
2023/09/16 06:50:58;;;;;;;;;;;;;;;;;;4994385;28;19949;-71
2023/09/16 06:53:24;;;;;;;;;;;;;;;;;;4973762;28;20388;-69
2023/09/16 06:55:49;;;;;;;;;;;;;;;;;;4961799;28;19925;-70
2023/09/16 06:58:14;;;;;;;;;;;;;;;;;;4975645;28;20393;-68
2023/09/16 07:00:44;;;;;;;;;;;;;;;;;;4956783;28;20339;-70
2023/09/16 07:03:10;;;;;;;;;;;;;;;;;;4971992;28;19918;-69
2023/09/16 07:05:36;;;;;;;;;;;;;;;;;;4970664;28;20388;-70
2023/09/16 07:08:04;;;;;;;;;;;;;;;;;;4971865;28;19918;-70
2023/09/16 07:10:35;;;;;;;;;;;;;;;;;;4971596;28;21843;-69
2023/09/16 07:13:03;;;;;;;;;;;;;;;;;;4972093;28;19922;-69
2023/09/16 07:15:28;;;;;;;;;;;;;;;;;;4972112;28;20001;-69
2023/09/16 07:17:56;;;;;;;;;;;;;;;;;;4957241;28;20013;-70
2023/09/16 07:26:54;;;;;;;;;;;;;;;;;;4974470;28;19932;-69
2023/09/16 07:29:20;;;;;;;;;;;;;;;;;;4973302;28;19922;-70
2023/09/16 07:31:45;;;;;;;;;;;;;;;;;;4952750;28;19918;-69
2023/09/16 07:34:15;;;;;;;;;;;;;;;;;;4974661;28;20518;-70
2023/09/16 07:36:41;;;;;;;;;;;;;;;;;;4967941;28;19917;-70
2023/09/16 07:39:06;;;;;;;;;;;;;;;;;;4956772;28;19921;-70
2023/09/16 07:41:31;;;;;;;;;;;;;;;;;;4971850;28;19922;-69
2023/09/16 07:43:57;;;;;;;;;;;;;;;;;;4951643;28;20619;-70
2023/09/16 07:46:22;;;;;;;;;;;;;;;;;;4957550;28;20815;-70
2023/09/16 07:48:47;;;;;;;;;;;;;;;;;;4971121;28;19928;-70
2023/09/16 07:51:16;;;;;;;;;;;;;;;;;;4972080;28;19926;-69
2023/09/16 07:53:41;;;;;;;;;;;;;;;;;;4973387;28;19917;-70
2023/09/16 07:56:06;;;;;;;;;;;;;;;;;;4987237;28;20793;-70
2023/09/16 07:58:31;;;;;;;;;;;;;;;;;;4973950;28;19924;-70
2023/09/16 08:00:57;;;;;;;;;;;;;;;;;;4971026;28;21838;-71
2023/09/16 08:03:25;;;;;;;;;;;;;;;;;;4971546;28;20527;-70
2023/09/16 08:05:50;;;;;;;;;;;;;;;;;;4954030;28;19951;-69
2023/09/16 08:08:21;;;;;;;;;;;;;;;;;;4971925;28;19933;-70
2023/09/16 08:10:50;;;;;;;;;;;;;;;;;;4956921;28;20036;-69
2023/09/16 08:13:18;;;;;;;;;;;;;;;;;;4970296;28;19929;-70
2023/09/16 08:15:44;;;;;;;;;;;;;;;;;;4956072;28;19926;-70
2023/09/16 08:18:09;;;;;;;;;;;;;;;;;;4971726;28;20500;-69
2023/09/16 08:20:34;;;;;;;;;;;;;;;;;;4971806;28;20943;-69
2023/09/16 08:23:04;;;;;;;;;;;;;;;;;;4961800;28;19921;-69
2023/09/16 08:25:32;;;;;;;;;;;;;;;;;;4970689;28;19968;-69
2023/09/16 08:28:00;;;;;;;;;;;;;;;;;;4973440;28;20451;-69
2023/09/16 08:30:28;;;;;;;;;;;;;;;;;;4967388;28;21217;-69
2023/09/16 08:32:56;;;;;;;;;;;;;;;;;;4955786;28;19968;-69
2023/09/16 08:35:25;;;;;;;;;;;;;;;;;;4954028;28;20380;-69
2023/09/16 08:37:50;;;;;;;;;;;;;;;;;;4970405;28;20064;-70
2023/09/16 08:40:18;;;;;;;;;;;;;;;;;;4972360;28;20596;-70
2023/09/16 08:42:46;;;;;;;;;;;;;;;;;;4970905;28;19944;-70
2023/09/16 08:45:14;;;;;;;;;;;;;;;;;;4973072;28;20665;-69
2023/09/16 08:47:39;;;;;;;;;;;;;;;;;;4972025;28;21887;-69
2023/09/16 08:50:09;;;;;;;;;;;;;;;;;;4952351;28;19937;-70
2023/09/16 08:52:38;;;;;;;;;;;;;;;;;;4955583;28;20012;-70
2023/09/16 08:55:03;;;;;;;;;;;;;;;;;;4954634;28;19926;-70
2023/09/16 08:57:31;;;;;;;;;;;;;;;;;;4975234;28;19924;-70
2023/09/16 08:59:57;;;;;;;;;;;;;;;;;;4995317;28;20028;-70
2023/09/16 09:02:27;;;;;;;;;;;;;;;;;;4976681;28;20862;-70
2023/09/16 09:04:52;;;;;;;;;;;;;;;;;;5010280;28;19917;-70
2023/09/16 09:07:21;;;;;;;;;;;;;;;;;;4977099;28;19991;-70
2023/09/16 09:09:46;;;;;;;;;;;;;;;;;;4995517;28;20640;-71
2023/09/16 09:12:11;;;;;;;;;;;;;;;;;;4978044;28;19925;-70
2023/09/16 09:14:39;;;;;;;;;;;;;;;;;;4979555;28;20407;-70
2023/09/16 09:17:05;;;;;;;;;;;;;;;;;;4995380;28;19960;-71
2023/09/16 09:19:30;;;;;;;;;;;;;;;;;;4976995;28;20047;-70
2023/09/16 09:21:58;;;;;;;;;;;;;;;;;;4962102;28;20629;-70
2023/09/16 09:24:23;;;;;;;;;;;;;;;;;;4977897;28;19925;-71
2023/09/16 09:26:49;;;;;;;;;;;;;;;;;;4976590;28;19921;-71
2023/09/16 09:29:17;;;;;;;;;;;;;;;;;;4975494;28;20387;-71
2023/09/16 09:31:42;;;;;;;;;;;;;;;;;;4978407;28;19917;-70
2023/09/16 09:34:08;;;;;;;;;;;;;;;;;;4961469;28;19940;-70
2023/09/16 09:36:35;;;;;;;;;;;;;;;;;;4995558;28;20300;-70
2023/09/16 09:39:01;;;;;;;;;;;;;;;;;;4993742;28;19921;-71
2023/09/16 09:41:26;;;;;;;;;;;;;;;;;;4978253;28;19947;-70
2023/09/16 09:43:53;;;;;;;;;;;;;;;;;;4976954;28;19917;-72
2023/09/16 09:46:23;;;;;;;;;;;;;;;;;;4978915;28;19941;-71
2023/09/16 09:48:49;;;;;;;;;;;;;;;;;;4995155;28;19944;-70
2023/09/16 09:51:16;;;;;;;;;;;;;;;;;;4995062;28;19922;-71
2023/09/16 09:53:44;;;;;;;;;;;;;;;;;;4958616;28;19921;-71
2023/09/16 09:56:10;;;;;;;;;;;;;;;;;;4992629;28;19993;-71
2023/09/16 09:58:37;;;;;;;;;;;;;;;;;;5010334;28;19917;-71
2023/09/16 10:01:03;;;;;;;;;;;;;;;;;;4975884;28;20550;-71
2023/09/16 10:03:30;;;;;;;;;;;;;;;;;;4976773;28;19922;-71
2023/09/16 10:05:59;;;;;;;;;;;;;;;;;;4992323;28;19925;-71
2023/09/16 10:08:25;;;;;;;;;;;;;;;;;;4977441;28;19932;-71
2023/09/16 10:10:52;;;;;;;;;;;;;;;;;;4976014;28;20719;-71
2023/09/16 10:13:17;;;;;;;;;;;;;;;;;;4978120;28;19994;-70
2023/09/16 10:15:46;;;;;;;;;;;;;;;;;;4976215;28;19999;-73
2023/09/16 10:18:12;;;;;;;;;;;;;;;;;;4976346;28;19917;-71
2023/09/16 10:20:37;;;;;;;;;;;;;;;;;;4994479;28;20361;-72
2023/09/16 10:23:05;;;;;;;;;;;;;;;;;;4992154;28;19952;-73
2023/09/16 10:25:30;;;;;;;;;;;;;;;;;;4961309;28;20016;-71
2023/09/16 10:27:58;;;;;;;;;;;;;;;;;;4975801;28;19944;-71
2023/09/16 10:30:23;;;;;;;;;;;;;;;;;;4960294;28;19921;-71
2023/09/16 10:32:49;;;;;;;;;;;;;;;;;;4976575;28;19921;-71
2023/09/16 10:35:16;;;;;;;;;;;;;;;;;;4977281;28;19918;-71
2023/09/16 10:37:43;;;;;;;;;;;;;;;;;;4992724;28;20403;-71
2023/09/16 10:40:08;;;;;;;;;;;;;;;;;;4992469;28;19917;-71
2023/09/16 10:42:34;;;;;;;;;;;;;;;;;;4994999;28;20016;-71
2023/09/16 10:45:05;;;;;;;;;;;;;;;;;;4959204;28;19925;-71
2023/09/16 10:47:30;;;;;;;;;;;;;;;;;;4974491;28;19921;-70
2023/09/16 10:50:01;;;;;;;;;;;;;;;;;;4975013;28;19921;-70
2023/09/16 10:52:26;;;;;;;;;;;;;;;;;;4958569;28;19922;-70
2023/09/16 10:54:52;;;;;;;;;;;;;;;;;;4977288;28;19924;-70
2023/09/16 10:57:20;;;;;;;;;;;;;;;;;;4976018;28;21397;-70
2023/09/16 10:59:48;;;;;;;;;;;;;;;;;;4963146;28;19937;-70
2023/09/16 11:02:13;;;;;;;;;;;;;;;;;;4995198;28;19975;-71
2023/09/16 11:04:38;;;;;;;;;;;;;;;;;;4998300;28;19926;-69
2023/09/16 11:07:04;;;;;;;;;;;;;;;;;;4959132;28;19921;-70
2023/09/16 11:09:32;;;;;;;;;;;;;;;;;;4977749;28;20168;-70
2023/09/16 11:12:00;;;;;;;;;;;;;;;;;;4996456;28;21175;-70
2023/09/16 11:14:25;;;;;;;;;;;;;;;;;;4976982;28;19917;-70
2023/09/16 11:16:50;;;;;;;;;;;;;;;;;;4961132;28;21278;-70
2023/09/16 11:19:16;;;;;;;;;;;;;;;;;;4958685;28;19917;-71
2023/09/16 11:21:42;;;;;;;;;;;;;;;;;;4976513;28;21815;-70
2023/09/16 11:24:07;;;;;;;;;;;;;;;;;;4976329;28;20008;-70
2023/09/16 11:26:32;;;;;;;;;;;;;;;;;;4994025;28;20230;-70
2023/09/16 11:29:00;;;;;;;;;;;;;;;;;;4976068;28;20030;-70
2023/09/16 11:31:26;;;;;;;;;;;;;;;;;;4973341;28;19921;-70
2023/09/16 11:33:51;;;;;;;;;;;;;;;;;;4960337;28;20371;-69
2023/09/16 11:36:17;;;;;;;;;;;;;;;;;;4992815;28;20281;-71
2023/09/16 11:38:42;;;;;;;;;;;;;;;;;;4974031;28;19928;-70
2023/09/16 11:41:11;;;;;;;;;;;;;;;;;;4974381;28;19933;-71
2023/09/16 11:43:38;;;;;;;;;;;;;;;;;;4974747;28;19917;-70
2023/09/16 11:46:04;;;;;;;;;;;;;;;;;;4973660;28;20028;-70
2023/09/16 11:48:31;;;;;;;;;;;;;;;;;;4975689;28;19922;-70
2023/09/16 11:50:57;;;;;;;;;;;;;;;;;;4955946;28;20400;-70
2023/09/16 11:53:23;;;;;;;;;;;;;;;;;;4974356;28;19921;-69
2023/09/16 11:55:51;;;;;;;;;;;;;;;;;;4970447;28;20009;-69
2023/09/16 11:58:17;;;;;;;;;;;;;;;;;;4975745;28;19925;-69
2023/09/16 12:00:44;;;;;;;;;;;;;;;;;;4991641;28;19939;-68
2023/09/16 12:03:11;;;;;;;;;;;;;;;;;;4973140;28;20007;-68
2023/09/16 12:05:38;;;;;;;;;;;;;;;;;;4976126;28;19925;-69
2023/09/16 12:08:05;;;;;;;;;;;;;;;;;;4970979;28;19950;-69
2023/09/16 12:10:31;;;;;;;;;;;;;;;;;;4972784;28;19988;-70
2023/09/16 12:12:56;;;;;;;;;;;;;;;;;;4956085;28;20465;-70
2023/09/16 12:15:21;;;;;;;;;;;;;;;;;;4956799;28;20354;-70
2023/09/16 12:17:49;;;;;;;;;;;;;;;;;;4973762;28;19922;-69
2023/09/16 12:20:17;;;;;;;;;;;;;;;;;;4959009;28;19921;-70
2023/09/16 12:22:43;;;;;;;;;;;;;;;;;;4973150;28;19932;-69
2023/09/16 12:25:11;;;;;;;;;;;;;;;;;;4975278;28;20447;-69
2023/09/16 12:27:36;;;;;;;;;;;;;;;;;;4973107;28;19928;-70
2023/09/16 12:30:01;;;;;;;;;;;;;;;;;;4959991;28;19969;-69
2023/09/16 12:32:29;;;;;;;;;;;;;;;;;;4972976;28;19929;-70
2023/09/16 12:34:54;;;;;;;;;;;;;;;;;;4974597;28;19917;-70
2023/09/16 12:37:20;;;;;;;;;;;;;;;;;;4991220;28;20598;-70
2023/09/16 12:39:45;;;;;;;;;;;;;;;;;;4973430;28;19928;-70
2023/09/16 12:42:11;;;;;;;;;;;;;;;;;;4986441;28;19917;-70
2023/09/16 12:44:37;;;;;;;;;;;;;;;;;;4974024;28;19925;-70
2023/09/16 12:47:03;;;;;;;;;;;;;;;;;;4991717;28;19952;-68
2023/09/16 12:49:28;;;;;;;;;;;;;;;;;;4975895;28;19921;-70
2023/09/16 12:51:54;;;;;;;;;;;;;;;;;;4991757;28;19928;-70
2023/09/16 12:54:19;;;;;;;;;;;;;;;;;;4955587;28;19948;-69
2023/09/16 12:56:44;;;;;;;;;;;;;;;;;;4990870;28;19917;-69
2023/09/16 12:59:09;;;;;;;;;;;;;;;;;;4973224;28;20361;-70
2023/09/16 13:01:35;;;;;;;;;;;;;;;;;;4974977;28;19936;-69
2023/09/16 13:04:02;;;;;;;;;;;;;;;;;;4970751;28;20036;-68
2023/09/16 13:06:28;;;;;;;;;;;;;;;;;;4992607;28;19917;-68
2023/09/16 13:08:53;;;;;;;;;;;;;;;;;;4973991;28;19918;-68
2023/09/16 13:11:19;;;;;;;;;;;;;;;;;;4989783;28;20021;-69
2023/09/16 13:13:44;;;;;;;;;;;;;;;;;;4957009;28;19928;-70
2023/09/16 13:16:10;;;;;;;;;;;;;;;;;;4954674;28;19929;-68
2023/09/16 13:18:38;;;;;;;;;;;;;;;;;;4974435;28;19922;-68
2023/09/16 13:21:03;;;;;;;;;;;;;;;;;;4972569;28;19956;-68
2023/09/16 13:23:30;;;;;;;;;;;;;;;;;;4974618;28;20036;-69
2023/09/16 13:25:58;;;;;;;;;;;;;;;;;;4988962;28;20565;-69
2023/09/16 13:28:26;;;;;;;;;;;;;;;;;;4991838;28;19928;-69
2023/09/16 13:30:53;;;;;;;;;;;;;;;;;;4987762;28;19917;-69
2023/09/16 13:33:18;;;;;;;;;;;;;;;;;;4972533;28;20472;-68
2023/09/16 13:35:43;;;;;;;;;;;;;;;;;;4989622;28;19927;-70
2023/09/16 13:38:09;;;;;;;;;;;;;;;;;;4955768;28;19995;-68
2023/09/16 13:40:34;;;;;;;;;;;;;;;;;;4972365;28;20689;-70
2023/09/16 13:42:59;;;;;;;;;;;;;;;;;;4993945;28;19921;-69
2023/09/16 13:45:25;;;;;;;;;;;;;;;;;;4994672;28;19928;-69
2023/09/16 13:47:50;;;;;;;;;;;;;;;;;;4976085;28;20385;-68
2023/09/16 13:50:15;;;;;;;;;;;;;;;;;;4961577;28;19918;-70
2023/09/16 13:52:40;;;;;;;;;;;;;;;;;;4961101;28;19940;-67
2023/09/16 13:55:08;;;;;;;;;;;;;;;;;;4959856;28;19949;-69
2023/09/16 13:57:36;;;;;;;;;;;;;;;;;;4977392;28;19928;-68
2023/09/16 14:00:03;;;;;;;;;;;;;;;;;;4975153;28;20796;-68
2023/09/16 14:02:31;;;;;;;;;;;;;;;;;;4976471;28;19925;-69
2023/09/16 14:04:56;;;;;;;;;;;;;;;;;;4974831;28;21729;-69
2023/09/16 14:07:22;;;;;;;;;;;;;;;;;;4961758;28;19918;-68
2023/09/16 14:09:51;;;;;;;;;;;;;;;;;;4992282;28;19924;-69
2023/09/16 14:12:19;;;;;;;;;;;;;;;;;;4962299;28;19921;-69
2023/09/16 14:14:47;;;;;;;;;;;;;;;;;;4976567;28;19953;-68
2023/09/16 14:17:13;;;;;;;;;;;;;;;;;;4959977;28;20008;-68
2023/09/16 14:19:40;;;;;;;;;;;;;;;;;;4995682;28;19917;-68
2023/09/16 14:22:05;;;;;;;;;;;;;;;;;;4973839;28;19917;-69
2023/09/16 14:24:32;;;;;;;;;;;;;;;;;;4993991;28;19932;-68
2023/09/16 14:27:01;;;;;;;;;;;;;;;;;;4976325;28;19928;-66
2023/09/16 14:29:26;;;;;;;;;;;;;;;;;;4977148;28;19949;-68
2023/09/16 14:31:54;;;;;;;;;;;;;;;;;;4989911;28;19932;-69
2023/09/16 14:34:20;;;;;;;;;;;;;;;;;;4961739;28;19922;-67
2023/09/16 14:36:45;;;;;;;;;;;;;;;;;;4977037;28;20532;-68
2023/09/16 14:39:10;;;;;;;;;;;;;;;;;;4955807;28;19922;-68
2023/09/16 14:41:41;;;;;;;;;;;;;;;;;;4977459;28;19921;-68
2023/09/16 14:44:10;;;;;;;;;;;;;;;;;;4992775;28;19917;-67
2023/09/16 14:46:37;;;;;;;;;;;;;;;;;;4994214;28;19922;-67
2023/09/16 14:49:02;;;;;;;;;;;;;;;;;;4959022;28;19921;-68
2023/09/16 14:51:30;;;;;;;;;;;;;;;;;;4971437;28;20025;-69
2023/09/16 14:53:55;;;;;;;;;;;;;;;;;;4972975;28;19921;-67
2023/09/16 14:56:21;;;;;;;;;;;;;;;;;;4990431;28;20836;-67
2023/09/16 14:58:46;;;;;;;;;;;;;;;;;;4975651;28;20008;-69
2023/09/16 15:01:13;;;;;;;;;;;;;;;;;;4975917;28;20403;-68
2023/09/16 15:03:42;;;;;;;;;;;;;;;;;;4991733;28;19921;-69
2023/09/16 15:06:07;;;;;;;;;;;;;;;;;;4992667;28;19926;-67
2023/09/16 15:08:35;;;;;;;;;;;;;;;;;;4977601;28;19923;-68
2023/09/16 15:11:05;;;;;;;;;;;;;;;;;;4975304;28;19922;-67
2023/09/16 15:13:35;;;;;;;;;;;;;;;;;;4995497;28;20579;-67
2023/09/16 15:16:04;;;;;;;;;;;;;;;;;;4975711;28;19933;-67
2023/09/16 15:18:29;;;;;;;;;;;;;;;;;;4960347;28;19921;-67
2023/09/16 15:20:57;;;;;;;;;;;;;;;;;;4975393;28;20042;-67
2023/09/16 15:23:22;;;;;;;;;;;;;;;;;;4972663;28;19921;-67
2023/09/16 15:25:50;;;;;;;;;;;;;;;;;;4972863;28;20121;-69
2023/09/16 15:28:15;;;;;;;;;;;;;;;;;;4959645;28;19921;-68
2023/09/16 15:30:43;;;;;;;;;;;;;;;;;;4956737;28;19925;-67
2023/09/16 15:33:11;;;;;;;;;;;;;;;;;;4990965;28;19972;-67
2023/09/16 15:35:37;;;;;;;;;;;;;;;;;;4955366;28;20064;-67
2023/09/16 15:38:07;;;;;;;;;;;;;;;;;;4975011;28;19928;-69
2023/09/16 15:40:33;;;;;;;;;;;;;;;;;;4992086;28;19917;-67
2023/09/16 15:43:01;;;;;;;;;;;;;;;;;;4974861;28;19921;-67
2023/09/16 15:45:31;;;;;;;;;;;;;;;;;;4975314;28;19925;-67
2023/09/16 15:48:02;;;;;;;;;;;;;;;;;;4968458;28;19921;-67
2023/09/16 15:50:30;;;;;;;;;;;;;;;;;;4989629;28;19998;-67
2023/09/16 15:52:56;;;;;;;;;;;;;;;;;;4989081;28;19921;-67
2023/09/16 15:55:21;;;;;;;;;;;;;;;;;;4959150;28;20008;-68
2023/09/16 15:57:46;;;;;;;;;;;;;;;;;;4958223;28;20009;-68
2023/09/16 16:00:11;;;;;;;;;;;;;;;;;;4992906;28;20377;-68
2023/09/16 16:02:41;;;;;;;;;;;;;;;;;;4956265;28;19932;-68
2023/09/16 16:05:06;;;;;;;;;;;;;;;;;;4970410;28;19957;-67
2023/09/16 16:07:34;;;;;;;;;;;;;;;;;;4973754;28;19976;-66
2023/09/16 16:10:02;;;;;;;;;;;;;;;;;;4974583;28;19921;-67
2023/09/16 16:12:30;;;;;;;;;;;;;;;;;;4956528;28;19929;-67
2023/09/16 16:14:58;;;;;;;;;;;;;;;;;;4975738;28;20012;-67
2023/09/16 16:17:25;;;;;;;;;;;;;;;;;;4974579;28;19928;-66
2023/09/16 16:19:54;;;;;;;;;;;;;;;;;;4955915;28;19929;-67
2023/09/16 16:22:19;;;;;;;;;;;;;;;;;;4992273;28;19917;-68
2023/09/16 16:24:47;;;;;;;;;;;;;;;;;;4956155;28;19925;-67
2023/09/16 16:27:15;;;;;;;;;;;;;;;;;;4955084;28;19921;-67
2023/09/16 16:29:43;;;;;;;;;;;;;;;;;;4974484;28;19925;-67
2023/09/16 16:32:08;;;;;;;;;;;;;;;;;;4989725;28;19921;-67
2023/09/16 16:34:36;;;;;;;;;;;;;;;;;;4971276;28;19928;-67
2023/09/16 16:37:01;;;;;;;;;;;;;;;;;;4970827;28;19926;-67
2023/09/16 16:39:29;;;;;;;;;;;;;;;;;;4969788;28;19928;-67
2023/09/16 16:41:56;;;;;;;;;;;;;;;;;;4959053;28;19965;-66
2023/09/16 16:44:22;;;;;;;;;;;;;;;;;;4973348;28;19956;-66
2023/09/16 16:46:47;;;;;;;;;;;;;;;;;;4990317;28;20491;-67
2023/09/16 16:49:12;;;;;;;;;;;;;;;;;;4956715;28;19932;-67
2023/09/16 16:51:38;;;;;;;;;;;;;;;;;;4971359;28;19917;-67